createdAt,value
2022-12-31T00:00:36.636Z,95.78
2022-12-31T00:01:36.593Z,95.78
2022-12-31T00:02:36.743Z,95.93
2022-12-31T00:03:36.571Z,96.14
2022-12-31T00:04:36.495Z,96.32
2022-12-31T00:05:36.535Z,96.45
2022-12-31T00:06:36.479Z,96.54
2022-12-31T00:08:10.400Z,96.34
2022-12-31T00:09:11.296Z,96.74
2022-12-31T00:10:11.269Z,96.72
2022-12-31T00:11:11.221Z,96.86
2022-12-31T00:12:11.239Z,96.83
2022-12-31T00:13:11.201Z,96.69
2022-12-31T00:14:11.199Z,96.64
2022-12-31T00:15:11.189Z,96.61
2022-12-31T00:16:12.495Z,96.61
2022-12-31T00:17:11.163Z,96.60
2022-12-31T00:18:11.158Z,96.46
2022-12-31T00:19:11.139Z,96.46
2022-12-31T00:20:11.123Z,96.21
2022-12-31T00:21:11.121Z,96.22
2022-12-31T00:22:11.101Z,96.34
2022-12-31T00:23:11.348Z,96.35
2022-12-31T00:24:11.117Z,96.54
2022-12-31T00:25:11.081Z,96.65
2022-12-31T00:26:11.061Z,96.75
2022-12-31T00:27:11.028Z,96.91
2022-12-31T00:28:11.027Z,96.66
2022-12-31T00:29:11.029Z,96.43
2022-12-31T00:30:10.995Z,96.38
2022-12-31T00:31:11.012Z,96.32
2022-12-31T00:32:10.950Z,96.04
2022-12-31T00:33:10.943Z,96.07
2022-12-31T00:34:10.916Z,96.32
2022-12-31T00:35:10.927Z,96.47
2022-12-31T00:36:10.940Z,96.63
2022-12-31T00:37:10.907Z,96.69
2022-12-31T00:38:10.883Z,96.61
2022-12-31T00:39:10.880Z,96.21
2022-12-31T00:40:10.846Z,96.27
2022-12-31T00:41:10.842Z,96.41
2022-12-31T00:42:10.840Z,96.20
2022-12-31T00:43:10.805Z,96.14
2022-12-31T00:44:10.779Z,96.36
2022-12-31T00:45:10.775Z,96.28
2022-12-31T00:46:10.802Z,96.21
2022-12-31T00:47:10.758Z,96.27
2022-12-31T00:48:10.739Z,96.45
2022-12-31T00:49:10.718Z,96.48
2022-12-31T00:50:10.736Z,96.57
2022-12-31T00:51:10.699Z,96.62
2022-12-31T00:52:10.679Z,96.85
2022-12-31T00:53:10.689Z,97.12
2022-12-31T00:54:10.670Z,97.22
2022-12-31T00:55:10.649Z,97.33
2022-12-31T00:56:10.635Z,97.46
2022-12-31T00:57:10.629Z,97.49
2022-12-31T00:58:10.616Z,97.61
2022-12-31T00:59:10.595Z,97.62
2022-12-31T01:00:10.571Z,97.72
2022-12-31T01:01:10.692Z,97.61
2022-12-31T01:02:10.932Z,97.46
2022-12-31T01:03:10.615Z,97.20
2022-12-31T01:04:10.552Z,97.18
2022-12-31T01:05:10.511Z,97.20
2022-12-31T01:06:10.512Z,97.26
2022-12-31T01:07:10.487Z,97.47
2022-12-31T01:08:10.470Z,97.51
2022-12-31T01:09:10.468Z,97.53
2022-12-31T01:10:10.460Z,97.54
2022-12-31T01:11:10.412Z,97.46
2022-12-31T01:12:10.422Z,97.62
2022-12-31T01:13:10.393Z,97.74
2022-12-31T01:14:10.416Z,97.84
2022-12-31T01:15:10.354Z,97.87
2022-12-31T01:16:10.403Z,97.97
2022-12-31T01:17:10.348Z,98.04
2022-12-31T01:18:10.345Z,98.11
2022-12-31T01:19:10.320Z,98.05
2022-12-31T01:20:10.311Z,97.89
2022-12-31T01:21:10.295Z,97.73
2022-12-31T01:22:10.284Z,97.63
2022-12-31T01:23:10.260Z,97.63
2022-12-31T01:24:10.268Z,97.66
2022-12-31T01:25:10.257Z,97.79
2022-12-31T01:26:10.218Z,97.93
2022-12-31T01:27:10.200Z,97.94
2022-12-31T01:28:10.195Z,97.82
2022-12-31T01:29:10.202Z,97.77
2022-12-31T01:30:10.183Z,97.88
2022-12-31T01:31:10.210Z,97.88
2022-12-31T01:32:10.180Z,97.90
2022-12-31T01:33:10.139Z,97.93
2022-12-31T01:34:10.128Z,97.98
2022-12-31T01:35:10.113Z,98.07
2022-12-31T01:36:10.107Z,98.13
2022-12-31T01:37:10.068Z,98.12
2022-12-31T01:38:10.091Z,97.89
2022-12-31T01:39:10.042Z,97.88
2022-12-31T01:40:10.043Z,97.90
2022-12-31T01:41:10.042Z,97.92
2022-12-31T01:42:10.024Z,97.94
2022-12-31T01:43:10.020Z,97.92
2022-12-31T01:44:09.989Z,97.91
2022-12-31T01:45:09.956Z,97.98
2022-12-31T01:46:10.009Z,98.10
2022-12-31T01:47:09.960Z,98.16
2022-12-31T01:48:09.932Z,98.03
2022-12-31T01:49:09.905Z,97.92
2022-12-31T01:50:09.928Z,98.05
2022-12-31T01:51:09.876Z,98.11
2022-12-31T01:52:09.876Z,98.07
2022-12-31T01:53:09.873Z,97.91
2022-12-31T01:54:09.856Z,97.81
2022-12-31T01:55:09.851Z,97.87
2022-12-31T01:56:09.835Z,97.94
2022-12-31T01:57:09.820Z,98.04
2022-12-31T01:58:09.800Z,98.10
2022-12-31T01:59:09.771Z,98.16
2022-12-31T02:00:09.783Z,98.09
2022-12-31T02:01:09.757Z,98.09
2022-12-31T02:02:09.787Z,97.99
2022-12-31T02:03:09.801Z,97.85
2022-12-31T02:04:09.727Z,97.86
2022-12-31T02:05:09.709Z,97.94
2022-12-31T02:06:09.697Z,98.05
2022-12-31T02:07:09.676Z,98.12
2022-12-31T02:08:09.680Z,98.02
2022-12-31T02:09:09.640Z,98.00
2022-12-31T02:10:09.654Z,98.04
2022-12-31T02:11:09.620Z,98.10
2022-12-31T02:12:09.639Z,98.16
2022-12-31T02:13:15.630Z,98.17
2022-12-31T02:14:09.604Z,98.26
2022-12-31T02:15:09.586Z,98.16
2022-12-31T02:16:09.597Z,98.01
2022-12-31T02:17:09.576Z,97.97
2022-12-31T02:18:09.558Z,97.89
2022-12-31T02:19:09.511Z,97.86
2022-12-31T02:20:09.527Z,97.88
2022-12-31T02:21:09.517Z,97.89
2022-12-31T02:22:09.479Z,97.85
2022-12-31T02:23:09.490Z,97.76
2022-12-31T02:24:09.467Z,97.69
2022-12-31T02:25:09.439Z,97.72
2022-12-31T02:26:09.427Z,97.75
2022-12-31T02:27:09.436Z,97.73
2022-12-31T02:28:09.420Z,97.73
2022-12-31T02:29:09.407Z,97.75
2022-12-31T02:30:09.421Z,97.80
2022-12-31T02:31:09.377Z,97.88
2022-12-31T02:32:10.340Z,97.97
2022-12-31T02:33:09.358Z,98.01
2022-12-31T02:34:09.332Z,97.96
2022-12-31T02:35:09.324Z,97.89
2022-12-31T02:36:09.337Z,97.86
2022-12-31T02:37:09.283Z,97.83
2022-12-31T02:38:09.263Z,97.86
2022-12-31T02:39:09.277Z,97.77
2022-12-31T02:40:09.248Z,97.73
2022-12-31T02:41:09.229Z,97.72
2022-12-31T02:42:09.230Z,97.62
2022-12-31T02:43:09.227Z,97.65
2022-12-31T02:44:09.292Z,97.65
2022-12-31T02:45:09.186Z,97.51
2022-12-31T02:46:09.185Z,97.47
2022-12-31T02:47:09.172Z,97.39
2022-12-31T02:48:09.137Z,97.30
2022-12-31T02:49:09.166Z,97.37
2022-12-31T02:50:09.170Z,97.52
2022-12-31T02:51:09.080Z,97.54
2022-12-31T02:52:09.083Z,97.63
2022-12-31T02:53:09.060Z,97.58
2022-12-31T02:54:09.051Z,97.53
2022-12-31T02:55:09.063Z,97.38
2022-12-31T02:56:09.043Z,97.33
2022-12-31T02:57:09.029Z,97.42
2022-12-31T02:58:09.079Z,97.42
2022-12-31T02:59:09.000Z,97.30
2022-12-31T03:00:09.007Z,97.26
2022-12-31T03:01:09.098Z,97.29
2022-12-31T03:02:09.044Z,97.37
2022-12-31T03:03:08.972Z,97.34
2022-12-31T03:04:08.921Z,97.39
2022-12-31T03:05:08.954Z,97.42
2022-12-31T03:06:08.923Z,97.47
2022-12-31T03:07:08.892Z,97.19
2022-12-31T03:08:08.881Z,97.11
2022-12-31T03:09:08.882Z,97.04
2022-12-31T03:10:08.842Z,96.99
2022-12-31T03:11:08.847Z,96.87
2022-12-31T03:12:08.821Z,96.79
2022-12-31T03:13:08.853Z,96.73
2022-12-31T03:14:08.789Z,96.39
2022-12-31T03:15:08.769Z,96.23
2022-12-31T03:16:08.817Z,96.23
2022-12-31T03:17:08.778Z,96.04
2022-12-31T03:18:08.750Z,95.94
2022-12-31T03:19:09.170Z,95.80
2022-12-31T03:20:08.711Z,95.73
2022-12-31T03:21:08.698Z,95.53
2022-12-31T03:22:08.693Z,95.56
2022-12-31T03:23:08.719Z,95.59
2022-12-31T03:24:08.680Z,95.55
2022-12-31T03:25:08.664Z,95.58
2022-12-31T03:26:08.622Z,95.54
2022-12-31T03:27:08.620Z,95.47
2022-12-31T03:28:08.643Z,95.16
2022-12-31T03:29:08.591Z,95.02
2022-12-31T03:30:08.577Z,95.05
2022-12-31T03:31:08.608Z,95.10
2022-12-31T03:32:08.534Z,95.16
2022-12-31T03:33:08.564Z,95.06
2022-12-31T03:34:08.610Z,95.12
2022-12-31T03:35:08.528Z,95.15
2022-12-31T03:36:08.500Z,95.33
2022-12-31T03:37:08.504Z,95.38
2022-12-31T03:38:08.467Z,95.40
2022-12-31T03:39:08.474Z,95.22
2022-12-31T03:40:08.456Z,95.17
2022-12-31T03:41:08.414Z,94.94
2022-12-31T03:42:08.411Z,94.98
2022-12-31T03:43:08.412Z,94.94
2022-12-31T03:44:08.425Z,94.77
2022-12-31T03:45:08.433Z,94.61
2022-12-31T03:46:08.488Z,94.60
2022-12-31T03:47:08.372Z,94.50
2022-12-31T03:48:08.334Z,94.36
2022-12-31T03:49:08.338Z,94.47
2022-12-31T03:50:08.316Z,94.36
2022-12-31T03:51:08.308Z,94.48
2022-12-31T03:52:08.276Z,94.54
2022-12-31T03:53:08.306Z,94.64
2022-12-31T03:54:08.266Z,94.84
2022-12-31T03:55:08.256Z,94.89
2022-12-31T03:56:08.235Z,94.97
2022-12-31T03:57:08.261Z,94.99
2022-12-31T03:58:08.206Z,95.03
2022-12-31T03:59:08.210Z,95.04
2022-12-31T04:00:08.226Z,95.09
2022-12-31T04:01:08.256Z,95.06
2022-12-31T04:02:08.306Z,94.94
2022-12-31T04:03:08.174Z,94.91
2022-12-31T04:04:08.136Z,95.06
2022-12-31T04:05:08.136Z,95.08
2022-12-31T04:06:08.112Z,95.12
2022-12-31T04:07:08.098Z,95.08
2022-12-31T04:08:08.099Z,95.11
2022-12-31T04:09:08.041Z,95.10
2022-12-31T04:10:08.044Z,95.05
2022-12-31T04:11:08.043Z,94.97
2022-12-31T04:12:08.005Z,95.07
2022-12-31T04:13:07.989Z,95.19
2022-12-31T04:14:07.997Z,95.31
2022-12-31T04:15:08.000Z,95.35
2022-12-31T04:16:07.990Z,95.47
2022-12-31T04:17:07.964Z,95.59
2022-12-31T04:18:07.963Z,95.53
2022-12-31T04:19:07.926Z,95.27
2022-12-31T04:20:07.935Z,95.20
2022-12-31T04:21:07.889Z,95.23
2022-12-31T04:22:07.919Z,95.14
2022-12-31T04:23:07.863Z,95.13
2022-12-31T04:24:07.908Z,95.21
2022-12-31T04:25:07.851Z,95.33
2022-12-31T04:26:07.887Z,95.28
2022-12-31T04:27:08.260Z,95.15
2022-12-31T04:28:07.813Z,95.15
2022-12-31T04:29:07.825Z,94.92
2022-12-31T04:30:07.784Z,94.72
2022-12-31T04:31:07.773Z,94.68
2022-12-31T04:32:07.837Z,94.69
2022-12-31T04:33:07.744Z,94.81
2022-12-31T04:34:07.742Z,94.92
2022-12-31T04:35:07.753Z,94.88
2022-12-31T04:36:07.696Z,94.92
2022-12-31T04:37:07.691Z,94.91
2022-12-31T04:38:07.667Z,94.70
2022-12-31T04:39:07.676Z,94.59
2022-12-31T04:40:07.654Z,94.70
2022-12-31T04:41:07.640Z,94.73
2022-12-31T04:42:07.632Z,94.74
2022-12-31T04:43:07.609Z,94.73
2022-12-31T04:44:07.638Z,94.58
2022-12-31T04:45:07.599Z,94.46
2022-12-31T04:46:07.555Z,94.26
2022-12-31T04:47:07.544Z,94.37
2022-12-31T04:48:07.527Z,94.39
2022-12-31T04:49:07.518Z,94.47
2022-12-31T04:50:07.514Z,94.90
2022-12-31T04:51:07.496Z,95.09
2022-12-31T04:52:07.482Z,95.29
2022-12-31T04:53:07.546Z,95.66
2022-12-31T04:54:07.428Z,95.94
2022-12-31T04:55:07.449Z,96.10
2022-12-31T04:56:07.412Z,96.15
2022-12-31T04:57:07.497Z,96.19
2022-12-31T04:58:07.377Z,95.99
2022-12-31T04:59:07.431Z,95.78
2022-12-31T05:00:07.432Z,95.65
2022-12-31T05:01:07.498Z,95.69
2022-12-31T05:02:07.534Z,95.68
2022-12-31T05:03:07.405Z,95.59
2022-12-31T05:04:07.295Z,95.54
2022-12-31T05:05:07.319Z,95.25
2022-12-31T05:06:07.335Z,95.17
2022-12-31T05:07:07.320Z,95.17
2022-12-31T05:08:07.266Z,95.18
2022-12-31T05:09:07.244Z,95.01
2022-12-31T05:10:07.232Z,95.12
2022-12-31T05:11:07.210Z,95.21
2022-12-31T05:12:07.186Z,95.27
2022-12-31T05:13:07.205Z,95.22
2022-12-31T05:14:07.207Z,94.72
2022-12-31T05:15:07.186Z,94.69
2022-12-31T05:16:07.193Z,94.66
2022-12-31T05:17:07.145Z,94.69
2022-12-31T05:18:07.120Z,94.75
2022-12-31T05:19:07.134Z,94.79
2022-12-31T05:20:07.156Z,94.84
2022-12-31T05:21:07.094Z,94.82
2022-12-31T05:22:07.097Z,94.90
2022-12-31T05:23:07.086Z,94.97
2022-12-31T05:24:07.041Z,94.86
2022-12-31T05:25:07.087Z,94.82
2022-12-31T05:26:07.042Z,94.52
2022-12-31T05:27:07.005Z,94.30
2022-12-31T05:28:06.993Z,94.37
2022-12-31T05:29:06.964Z,94.39
2022-12-31T05:30:06.966Z,94.23
2022-12-31T05:31:06.982Z,94.66
2022-12-31T05:32:06.962Z,95.64
2022-12-31T05:33:06.941Z,96.89
2022-12-31T05:34:06.899Z,97.99
2022-12-31T05:35:06.954Z,99.15
2022-12-31T05:36:06.882Z,100.00
2022-12-31T05:37:06.867Z,100.00
2022-12-31T05:38:06.843Z,100.00
2022-12-31T05:39:06.847Z,100.00
2022-12-31T05:40:06.817Z,100.00
2022-12-31T05:41:06.821Z,100.00
2022-12-31T05:42:06.782Z,100.00
2022-12-31T05:43:06.821Z,100.00
2022-12-31T05:44:06.777Z,100.00
2022-12-31T05:45:06.786Z,100.00
2022-12-31T05:46:06.808Z,100.00
2022-12-31T05:47:06.746Z,100.00
2022-12-31T05:48:06.743Z,100.00
2022-12-31T05:49:06.723Z,100.00
2022-12-31T05:50:06.673Z,100.00
2022-12-31T05:51:06.664Z,100.00
2022-12-31T05:52:06.674Z,100.00
2022-12-31T05:53:06.692Z,100.00
2022-12-31T05:54:06.619Z,100.00
2022-12-31T05:55:06.638Z,100.00
2022-12-31T05:56:06.604Z,100.00
2022-12-31T05:57:06.632Z,100.00
2022-12-31T05:58:06.615Z,100.00
2022-12-31T05:59:06.596Z,100.00
2022-12-31T06:00:06.559Z,100.00
2022-12-31T06:01:06.575Z,100.00
2022-12-31T06:02:06.519Z,100.00
2022-12-31T06:03:06.628Z,100.00
2022-12-31T06:04:06.527Z,100.00
2022-12-31T06:05:06.478Z,100.00
2022-12-31T06:06:06.507Z,100.00
2022-12-31T06:07:06.453Z,100.00
2022-12-31T06:08:06.428Z,100.00
2022-12-31T06:09:06.446Z,100.00
2022-12-31T06:10:06.425Z,100.00
2022-12-31T06:11:06.433Z,100.00
2022-12-31T06:12:06.400Z,100.00
2022-12-31T06:13:06.392Z,100.00
2022-12-31T06:14:06.361Z,100.00
2022-12-31T06:15:06.351Z,100.00
2022-12-31T06:16:06.366Z,100.00
2022-12-31T06:17:06.333Z,100.00
2022-12-31T06:18:06.317Z,100.00
2022-12-31T06:19:06.296Z,100.00
2022-12-31T06:20:12.457Z,100.00
2022-12-31T06:21:06.308Z,100.00
2022-12-31T06:22:06.241Z,100.00
2022-12-31T06:23:06.242Z,100.00
2022-12-31T06:24:06.233Z,100.00
2022-12-31T06:25:06.222Z,100.00
2022-12-31T06:26:06.188Z,99.80
2022-12-31T06:27:06.208Z,99.89
2022-12-31T06:28:06.183Z,99.81
2022-12-31T06:29:06.180Z,99.77
2022-12-31T06:30:06.168Z,99.87
2022-12-31T06:31:06.188Z,99.87
2022-12-31T06:32:06.127Z,99.93
2022-12-31T06:33:06.127Z,99.76
2022-12-31T06:34:06.151Z,99.09
2022-12-31T06:35:06.072Z,98.68
2022-12-31T06:36:06.080Z,97.81
2022-12-31T06:37:06.059Z,97.63
2022-12-31T06:38:06.055Z,97.75
2022-12-31T06:39:06.030Z,97.85
2022-12-31T06:40:06.018Z,97.73
2022-12-31T06:41:06.004Z,97.66
2022-12-31T06:42:06.001Z,97.76
2022-12-31T06:43:05.993Z,97.80
2022-12-31T06:44:05.955Z,97.90
2022-12-31T06:45:05.960Z,97.85
2022-12-31T06:46:05.971Z,97.55
2022-12-31T06:47:05.925Z,97.21
2022-12-31T06:48:05.908Z,97.17
2022-12-31T06:49:05.890Z,96.88
2022-12-31T06:50:05.878Z,96.40
2022-12-31T06:51:05.873Z,96.50
2022-12-31T06:52:05.859Z,96.43
2022-12-31T06:53:05.858Z,96.24
2022-12-31T06:54:05.809Z,96.03
2022-12-31T06:55:05.860Z,96.02
2022-12-31T06:56:05.824Z,96.39
2022-12-31T06:57:05.795Z,96.17
2022-12-31T06:58:05.782Z,95.74
2022-12-31T06:59:05.757Z,95.40
2022-12-31T07:00:05.819Z,94.94
2022-12-31T07:01:05.746Z,94.30
2022-12-31T07:02:05.779Z,94.13
2022-12-31T07:03:05.713Z,93.98
2022-12-31T07:04:05.677Z,93.90
2022-12-31T07:05:05.679Z,94.09
2022-12-31T07:06:05.692Z,94.40
2022-12-31T07:07:05.639Z,94.52
2022-12-31T07:08:05.639Z,94.33
2022-12-31T07:09:05.629Z,94.18
2022-12-31T07:10:05.620Z,93.56
2022-12-31T07:11:05.603Z,93.40
2022-12-31T07:12:05.595Z,93.47
2022-12-31T07:13:05.584Z,93.66
2022-12-31T07:14:05.559Z,93.83
2022-12-31T07:15:05.591Z,94.11
2022-12-31T07:16:05.578Z,93.89
2022-12-31T07:17:05.531Z,93.24
2022-12-31T07:18:05.513Z,92.54
2022-12-31T07:19:05.507Z,92.57
2022-12-31T07:20:05.483Z,92.80
2022-12-31T07:21:05.549Z,92.51
2022-12-31T07:22:05.464Z,92.63
2022-12-31T07:23:05.427Z,92.39
2022-12-31T07:24:05.446Z,92.31
2022-12-31T07:25:05.433Z,91.96
2022-12-31T07:26:05.409Z,91.79
2022-12-31T07:27:05.400Z,91.73
2022-12-31T07:28:05.373Z,91.75
2022-12-31T07:29:05.346Z,91.85
2022-12-31T07:30:05.343Z,92.00
2022-12-31T07:31:05.431Z,91.61
2022-12-31T07:32:05.362Z,91.83
2022-12-31T07:33:05.302Z,91.91
2022-12-31T07:34:05.298Z,91.55
2022-12-31T07:35:05.298Z,91.44
2022-12-31T07:36:05.292Z,91.29
2022-12-31T07:37:05.263Z,90.82
2022-12-31T07:38:05.259Z,90.91
2022-12-31T07:39:05.227Z,90.97
2022-12-31T07:40:05.231Z,91.25
2022-12-31T07:41:09.358Z,91.27
2022-12-31T07:42:05.212Z,90.95
2022-12-31T07:43:05.165Z,90.74
2022-12-31T07:44:05.199Z,90.25
2022-12-31T07:45:05.161Z,90.41
2022-12-31T07:46:05.247Z,90.55
2022-12-31T07:47:05.138Z,90.42
2022-12-31T07:48:05.135Z,90.66
2022-12-31T07:49:05.117Z,90.60
2022-12-31T07:50:05.236Z,90.05
2022-12-31T07:51:05.101Z,90.05
2022-12-31T07:52:05.080Z,89.91
2022-12-31T07:53:05.072Z,90.13
2022-12-31T07:54:10.196Z,90.07
2022-12-31T07:55:05.017Z,89.96
2022-12-31T07:56:05.016Z,90.26
2022-12-31T07:57:04.995Z,90.37
2022-12-31T07:58:04.969Z,90.28
2022-12-31T07:59:04.971Z,89.86
2022-12-31T08:00:04.960Z,89.86
2022-12-31T08:01:05.029Z,89.72
2022-12-31T08:02:04.981Z,89.39
2022-12-31T08:03:04.916Z,89.21
2022-12-31T08:04:04.907Z,89.35
2022-12-31T08:05:04.945Z,89.08
2022-12-31T08:06:04.886Z,89.17
2022-12-31T08:07:04.845Z,89.30
2022-12-31T08:08:04.858Z,89.65
2022-12-31T08:09:04.834Z,89.58
2022-12-31T08:10:04.822Z,89.23
2022-12-31T08:11:04.789Z,89.23
2022-12-31T08:12:04.804Z,88.94
2022-12-31T08:13:04.799Z,89.41
2022-12-31T08:14:10.790Z,89.18
2022-12-31T08:15:04.750Z,89.06
2022-12-31T08:16:04.740Z,88.54
2022-12-31T08:17:04.724Z,88.73
2022-12-31T08:18:04.723Z,88.79
2022-12-31T08:19:04.707Z,89.04
2022-12-31T08:20:04.690Z,89.21
2022-12-31T08:21:04.674Z,89.12
2022-12-31T08:22:04.692Z,89.10
2022-12-31T08:23:04.655Z,88.92
2022-12-31T08:24:04.632Z,88.95
2022-12-31T08:25:04.635Z,89.08
2022-12-31T08:26:04.600Z,89.04
2022-12-31T08:27:04.577Z,88.77
2022-12-31T08:28:04.587Z,89.01
2022-12-31T08:29:04.592Z,88.96
2022-12-31T08:30:04.571Z,89.23
2022-12-31T08:31:04.544Z,89.24
2022-12-31T08:32:04.577Z,89.10
2022-12-31T08:33:04.511Z,88.85
2022-12-31T08:34:06.209Z,88.88
2022-12-31T08:35:04.504Z,88.74
2022-12-31T08:36:04.477Z,88.93
2022-12-31T08:37:04.516Z,89.04
2022-12-31T08:38:04.462Z,88.94
2022-12-31T08:39:04.459Z,88.73
2022-12-31T08:40:04.423Z,88.26
2022-12-31T08:41:04.408Z,88.53
2022-12-31T08:42:04.411Z,88.51
2022-12-31T08:43:04.395Z,88.45
2022-12-31T08:44:04.400Z,88.72
2022-12-31T08:45:04.354Z,88.78
2022-12-31T08:46:04.459Z,88.73
2022-12-31T08:47:04.380Z,88.66
2022-12-31T08:48:04.380Z,88.83
2022-12-31T08:49:04.306Z,88.50
2022-12-31T08:50:04.314Z,88.72
2022-12-31T08:51:04.284Z,88.51
2022-12-31T08:52:04.234Z,88.46
2022-12-31T08:53:04.244Z,88.41
2022-12-31T08:54:04.223Z,87.93
2022-12-31T08:55:04.202Z,87.90
2022-12-31T08:56:04.179Z,88.11
2022-12-31T08:57:04.168Z,88.12
2022-12-31T08:58:04.150Z,88.07
2022-12-31T08:59:04.151Z,87.66
2022-12-31T09:00:04.154Z,87.51
2022-12-31T09:01:04.168Z,87.12
2022-12-31T09:02:04.298Z,86.93
2022-12-31T09:03:04.092Z,86.80
2022-12-31T09:04:04.129Z,86.89
2022-12-31T09:05:04.052Z,86.90
2022-12-31T09:06:04.067Z,86.65
2022-12-31T09:07:04.037Z,86.19
2022-12-31T09:08:04.048Z,86.14
2022-12-31T09:09:03.998Z,85.21
2022-12-31T09:10:04.002Z,86.02
2022-12-31T09:11:03.970Z,85.35
2022-12-31T09:12:03.978Z,85.78
2022-12-31T09:13:03.962Z,86.20
2022-12-31T09:14:03.948Z,86.71
2022-12-31T09:15:03.924Z,86.58
2022-12-31T09:16:04.057Z,86.53
2022-12-31T09:17:03.887Z,86.59
2022-12-31T09:18:03.910Z,86.62
2022-12-31T09:19:03.903Z,86.59
2022-12-31T09:20:03.870Z,86.71
2022-12-31T09:21:03.849Z,86.66
2022-12-31T09:22:03.871Z,86.49
2022-12-31T09:23:03.859Z,86.54
2022-12-31T09:24:09.167Z,86.22
2022-12-31T09:25:03.820Z,86.23
2022-12-31T09:26:03.841Z,86.28
2022-12-31T09:27:03.784Z,85.95
2022-12-31T09:28:03.826Z,85.08
2022-12-31T09:29:03.762Z,85.53
2022-12-31T09:30:03.792Z,84.63
2022-12-31T09:31:03.732Z,85.05
2022-12-31T09:32:03.791Z,84.98
2022-12-31T09:33:03.698Z,84.25
2022-12-31T09:34:03.697Z,83.50
2022-12-31T09:35:03.691Z,82.84
2022-12-31T09:36:03.721Z,82.35
2022-12-31T09:37:03.649Z,82.77
2022-12-31T09:38:09.489Z,82.28
2022-12-31T09:39:03.629Z,82.63
2022-12-31T09:40:03.587Z,81.85
2022-12-31T09:41:03.625Z,81.17
2022-12-31T09:42:03.576Z,81.44
2022-12-31T09:43:03.612Z,81.19
2022-12-31T09:44:03.551Z,80.70
2022-12-31T09:45:03.590Z,81.22
2022-12-31T09:46:03.555Z,80.40
2022-12-31T09:47:03.500Z,80.35
2022-12-31T09:48:03.503Z,80.00
2022-12-31T09:49:03.493Z,79.98
2022-12-31T09:50:03.474Z,81.87
2022-12-31T09:51:03.442Z,82.63
2022-12-31T09:52:03.448Z,82.32
2022-12-31T09:53:03.429Z,82.97
2022-12-31T09:54:03.406Z,83.68
2022-12-31T09:55:03.410Z,82.55
2022-12-31T09:56:03.423Z,81.19
2022-12-31T09:57:03.376Z,81.03
2022-12-31T09:58:03.344Z,80.20
2022-12-31T09:59:03.333Z,80.29
2022-12-31T10:00:03.346Z,79.79
2022-12-31T10:01:03.615Z,79.37
2022-12-31T10:02:03.647Z,80.81
2022-12-31T10:03:03.377Z,80.67
2022-12-31T10:04:03.962Z,79.94
2022-12-31T10:05:03.269Z,79.31
2022-12-31T10:06:03.248Z,78.81
2022-12-31T10:07:03.228Z,79.61
2022-12-31T10:08:03.210Z,79.15
2022-12-31T10:09:03.210Z,79.55
2022-12-31T10:10:03.200Z,80.70
2022-12-31T10:11:03.182Z,81.33
2022-12-31T10:12:03.203Z,81.73
2022-12-31T10:13:03.191Z,82.24
2022-12-31T10:14:03.176Z,82.46
2022-12-31T10:15:03.131Z,82.45
2022-12-31T10:16:03.148Z,82.62
2022-12-31T10:17:03.134Z,82.58
2022-12-31T10:18:03.088Z,82.38
2022-12-31T10:19:03.062Z,82.31
2022-12-31T10:20:03.073Z,81.92
2022-12-31T10:21:03.038Z,81.81
2022-12-31T10:22:03.043Z,81.27
2022-12-31T10:23:03.006Z,81.43
2022-12-31T10:24:03.009Z,80.35
2022-12-31T10:25:03.018Z,80.32
2022-12-31T10:26:02.984Z,79.92
2022-12-31T10:27:02.967Z,80.30
2022-12-31T10:28:02.940Z,80.10
2022-12-31T10:29:02.943Z,80.89
2022-12-31T10:30:02.957Z,80.51
2022-12-31T10:31:03.046Z,80.67
2022-12-31T10:32:02.909Z,80.70
2022-12-31T10:33:02.884Z,80.82
2022-12-31T10:34:02.888Z,81.01
2022-12-31T10:35:03.154Z,80.93
2022-12-31T10:36:02.837Z,80.83
2022-12-31T10:37:02.818Z,80.73
2022-12-31T10:38:02.825Z,79.73
2022-12-31T10:39:06.141Z,79.91
2022-12-31T10:40:02.793Z,79.44
2022-12-31T10:41:02.766Z,80.27
2022-12-31T10:42:02.772Z,80.28
2022-12-31T10:43:02.740Z,80.23
2022-12-31T10:44:02.731Z,80.15
2022-12-31T10:45:02.732Z,80.32
2022-12-31T10:46:02.728Z,80.89
2022-12-31T10:47:02.694Z,80.56
2022-12-31T10:48:02.696Z,80.05
2022-12-31T10:49:02.690Z,80.37
2022-12-31T10:50:02.656Z,80.90
2022-12-31T10:51:02.646Z,81.02
2022-12-31T10:52:02.643Z,81.22
2022-12-31T10:53:02.603Z,81.30
2022-12-31T10:54:02.665Z,81.46
2022-12-31T10:55:02.632Z,81.57
2022-12-31T10:56:02.592Z,81.78
2022-12-31T10:57:02.552Z,81.70
2022-12-31T10:58:04.493Z,81.57
2022-12-31T10:59:02.530Z,81.79
2022-12-31T11:00:02.532Z,81.79
2022-12-31T11:01:02.686Z,81.72
2022-12-31T11:02:02.534Z,81.72
2022-12-31T11:03:02.504Z,81.55
2022-12-31T11:04:02.464Z,81.74
2022-12-31T11:05:02.477Z,81.76
2022-12-31T11:06:02.441Z,81.90
2022-12-31T11:07:02.428Z,81.74
2022-12-31T11:08:02.541Z,81.55
2022-12-31T11:09:02.409Z,81.56
2022-12-31T11:10:02.379Z,81.50
2022-12-31T11:11:02.417Z,81.36
2022-12-31T11:12:02.348Z,81.34
2022-12-31T11:13:02.331Z,81.34
2022-12-31T11:14:02.324Z,81.25
2022-12-31T11:15:02.323Z,81.20
2022-12-31T11:16:02.352Z,80.94
2022-12-31T11:17:02.405Z,80.70
2022-12-31T11:18:02.305Z,80.90
2022-12-31T11:19:02.269Z,80.95
2022-12-31T11:20:02.248Z,80.67
2022-12-31T11:21:02.224Z,80.91
2022-12-31T11:22:02.238Z,81.19
2022-12-31T11:23:02.239Z,80.82
2022-12-31T11:24:02.212Z,80.97
2022-12-31T11:25:02.229Z,80.78
2022-12-31T11:26:02.174Z,81.00
2022-12-31T11:27:02.145Z,81.35
2022-12-31T11:28:02.161Z,81.08
2022-12-31T11:29:02.127Z,81.35
2022-12-31T11:30:02.123Z,81.32
2022-12-31T11:31:02.150Z,81.49
2022-12-31T11:32:02.094Z,81.55
2022-12-31T11:33:02.093Z,81.55
2022-12-31T11:34:02.057Z,81.44
2022-12-31T11:35:02.040Z,81.18
2022-12-31T11:36:02.026Z,81.05
2022-12-31T11:37:02.065Z,81.27
2022-12-31T11:38:02.008Z,81.14
2022-12-31T11:39:02.000Z,80.92
2022-12-31T11:40:01.971Z,80.57
2022-12-31T11:41:01.979Z,80.66
2022-12-31T11:42:01.940Z,80.63
2022-12-31T11:43:01.958Z,80.38
2022-12-31T11:44:01.940Z,80.45
2022-12-31T11:45:01.921Z,80.10
2022-12-31T11:46:01.943Z,79.25
2022-12-31T11:47:01.898Z,78.52
2022-12-31T11:48:29.653Z,78.43
2022-12-31T11:49:01.890Z,78.66
2022-12-31T11:50:01.860Z,78.83
2022-12-31T11:51:01.863Z,79.14
2022-12-31T11:52:01.834Z,79.14
2022-12-31T11:53:01.811Z,79.16
2022-12-31T11:54:01.793Z,79.15
2022-12-31T11:55:01.772Z,79.29
2022-12-31T11:56:01.800Z,79.29
2022-12-31T11:57:01.749Z,78.87
2022-12-31T11:58:01.821Z,78.87
2022-12-31T11:59:06.259Z,78.84
2022-12-31T12:00:01.723Z,78.46
2022-12-31T12:01:01.718Z,78.17
2022-12-31T12:02:01.674Z,77.80
2022-12-31T12:03:01.760Z,77.56
2022-12-31T12:04:01.741Z,77.20
2022-12-31T12:05:08.472Z,77.28
2022-12-31T12:06:02.080Z,77.26
2022-12-31T12:07:01.687Z,77.31
2022-12-31T12:08:01.768Z,77.17
2022-12-31T12:09:01.660Z,77.42
2022-12-31T12:10:01.619Z,77.33
2022-12-31T12:11:01.582Z,77.59
2022-12-31T12:12:01.963Z,77.87
2022-12-31T12:13:01.838Z,77.64
2022-12-31T12:14:01.539Z,77.92
2022-12-31T12:15:01.545Z,77.75
2022-12-31T12:16:02.628Z,77.74
2022-12-31T12:17:05.839Z,77.94
2022-12-31T12:18:01.943Z,77.67
2022-12-31T12:19:03.902Z,77.64
2022-12-31T12:20:02.276Z,77.56
2022-12-31T12:21:02.164Z,77.75
2022-12-31T12:22:01.463Z,77.71
2022-12-31T12:23:01.438Z,77.48
2022-12-31T12:24:01.403Z,77.44
2022-12-31T12:25:01.366Z,77.31
2022-12-31T12:26:01.798Z,77.51
2022-12-31T12:27:01.373Z,77.70
2022-12-31T12:28:01.349Z,77.45
2022-12-31T12:29:01.520Z,77.72
2022-12-31T12:30:02.174Z,78.07
2022-12-31T12:31:01.421Z,78.02
2022-12-31T12:32:01.286Z,78.10
2022-12-31T12:33:01.272Z,78.33
2022-12-31T12:34:01.415Z,78.29
2022-12-31T12:35:02.132Z,78.27
2022-12-31T12:36:01.339Z,78.27
2022-12-31T12:37:01.219Z,78.59
2022-12-31T12:38:01.205Z,78.44
2022-12-31T12:39:01.221Z,78.32
2022-12-31T12:40:01.192Z,78.01
2022-12-31T12:41:01.165Z,77.85
2022-12-31T12:42:01.148Z,78.06
2022-12-31T12:43:01.254Z,78.00
2022-12-31T12:44:01.142Z,78.00
2022-12-31T12:45:01.237Z,77.80
2022-12-31T12:46:01.095Z,77.58
2022-12-31T12:47:01.116Z,77.61
2022-12-31T12:48:01.203Z,77.42
2022-12-31T12:49:01.317Z,77.69
2022-12-31T12:50:01.119Z,77.59
2022-12-31T12:51:01.284Z,77.66
2022-12-31T12:52:01.084Z,77.80